createdAt,value
2022-08-03T00:00:00.362Z,53254.48
2022-08-03T00:01:03.339Z,53235.44
2022-08-03T00:02:06.521Z,53220.41
2022-08-03T00:03:11.110Z,53253.48
2022-08-03T00:04:14.123Z,53269.51
2022-08-03T00:05:16.993Z,53223.41
2022-08-03T00:06:19.999Z,53267.51
2022-08-03T00:07:22.848Z,53258.49
2022-08-03T00:08:28.488Z,53245.46
2022-08-03T00:09:35.866Z,53208.38
2022-08-03T00:10:36.282Z,53240.45
2022-08-03T00:11:38.972Z,53235.44
2022-08-03T00:12:41.717Z,53200.37
2022-08-03T00:13:44.491Z,53198.36
2022-08-03T00:14:47.374Z,53198.36
2022-08-03T00:15:50.657Z,53180.32
2022-08-03T00:16:53.440Z,53199.36
2022-08-03T00:17:56.195Z,53270.51
2022-08-03T00:19:00.780Z,53205.37
2022-08-03T00:20:03.582Z,53211.39
2022-08-03T00:21:06.253Z,53216.40
2022-08-03T00:22:09.073Z,53242.45
2022-08-03T00:23:11.800Z,53228.42
2022-08-03T00:24:14.782Z,53210.39
2022-08-03T00:25:17.564Z,53209.38
2022-08-03T00:26:20.424Z,53248.46
2022-08-03T00:27:23.408Z,53189.34
2022-08-03T00:28:26.389Z,53219.41
2022-08-03T00:29:30.076Z,53208.38
2022-08-03T00:30:32.944Z,53222.41
2022-08-03T00:31:44.932Z,53210.39
2022-08-03T00:32:45.081Z,53230.43
2022-08-03T00:33:57.981Z,53225.42
2022-08-03T00:34:58.626Z,53216.40
2022-08-03T00:35:53.058Z,53255.48
2022-08-03T00:36:56.127Z,53222.41
2022-08-03T00:37:59.115Z,53211.39
2022-08-03T00:39:02.189Z,53217.40
2022-08-03T00:40:05.570Z,53210.39
2022-08-03T00:41:08.552Z,53196.36
2022-08-03T00:42:11.533Z,53223.41
2022-08-03T00:43:14.503Z,53207.38
2022-08-03T00:44:20.148Z,53186.34
2022-08-03T00:45:23.126Z,53205.37
2022-08-03T00:46:25.999Z,53164.29
2022-08-03T00:47:28.976Z,53229.43
2022-08-03T00:48:33.785Z,53210.39
2022-08-03T00:49:36.114Z,53212.39
2022-08-03T00:50:39.029Z,53190.34
2022-08-03T00:51:41.700Z,53203.37
2022-08-03T00:52:44.480Z,53183.33
2022-08-03T00:53:47.084Z,53153.27
2022-08-03T00:54:49.713Z,53203.37
2022-08-03T00:55:52.379Z,53146.25
2022-08-03T00:56:59.618Z,53194.35
2022-08-03T00:57:59.464Z,53191.35
2022-08-03T00:59:02.233Z,53146.25
2022-08-03T01:00:05.010Z,53146.25
2022-08-03T01:01:07.824Z,53149.26
2022-08-03T01:02:10.672Z,53158.28
2022-08-03T01:03:13.443Z,53151.26
2022-08-03T01:04:16.103Z,53120.20
2022-08-03T01:05:18.868Z,53157.28
2022-08-03T01:06:21.639Z,53114.19
2022-08-03T01:07:24.411Z,53122.20
2022-08-03T01:08:27.180Z,53132.22
2022-08-03T01:09:29.977Z,53132.22
2022-08-03T01:10:32.943Z,53136.23
2022-08-03T01:11:35.609Z,53102.16
2022-08-03T01:12:39.911Z,53125.21
2022-08-03T01:14:04.531Z,53115.19
2022-08-03T01:14:46.891Z,53086.13
2022-08-03T01:15:49.559Z,53084.12
2022-08-03T01:16:52.343Z,53078.11
2022-08-03T01:17:55.207Z,53064.08
2022-08-03T01:18:57.984Z,53049.05
2022-08-03T01:20:00.755Z,53049.05
2022-08-03T01:21:04.646Z,53032.02
2022-08-03T01:22:08.877Z,52965.88
2022-08-03T01:23:11.429Z,53019.99
2022-08-03T01:24:14.093Z,52966.89
2022-08-03T01:25:16.561Z,52995.95
2022-08-03T01:26:19.329Z,52922.80
2022-08-03T01:27:22.204Z,52963.88
2022-08-03T01:28:25.382Z,52901.75
2022-08-03T01:29:28.371Z,52925.80
2022-08-03T01:30:31.231Z,52932.82
2022-08-03T01:31:34.111Z,52994.94
2022-08-03T01:32:58.562Z,52938.83
2022-08-03T01:33:43.040Z,52925.80
2022-08-03T01:34:45.707Z,52890.73
2022-08-03T01:35:48.370Z,52879.71
2022-08-03T01:36:51.253Z,52890.73
2022-08-03T01:37:53.922Z,52905.76
2022-08-03T01:38:56.703Z,52927.80
2022-08-03T01:39:59.665Z,52881.71
2022-08-03T01:42:21.081Z,52867.68
2022-08-03T01:44:28.275Z,52857.67
2022-08-03T01:44:30.930Z,52823.60
2022-08-03T01:45:34.202Z,52821.59
2022-08-03T01:46:36.686Z,52833.62
2022-08-03T01:47:39.550Z,52860.67
2022-08-03T01:48:42.326Z,52871.70
2022-08-03T01:49:45.083Z,52886.72
2022-08-03T01:50:47.769Z,52884.72
2022-08-03T01:52:04.119Z,52945.84
2022-08-03T01:52:54.946Z,52969.89
2022-08-03T01:53:57.827Z,52972.90
2022-08-03T01:55:00.595Z,52928.81
2022-08-03T01:56:03.580Z,52885.72
2022-08-03T01:57:06.238Z,52866.68
2022-08-03T01:58:08.912Z,52798.55
2022-08-03T01:59:11.792Z,52839.63
2022-08-03T02:00:14.566Z,52830.61
2022-08-03T02:01:17.441Z,52787.53
2022-08-03T02:02:32.832Z,52807.57
2022-08-03T02:03:24.618Z,52809.57
2022-08-03T02:04:27.488Z,52823.60
2022-08-03T02:05:30.161Z,52791.54
2022-08-03T02:07:01.376Z,52801.55
2022-08-03T02:07:37.241Z,52777.50
2022-08-03T02:08:47.906Z,52818.59
2022-08-03T02:09:50.562Z,52793.54
2022-08-03T02:10:53.343Z,52810.57
2022-08-03T02:11:56.014Z,52801.55
2022-08-03T02:12:58.692Z,52820.59
2022-08-03T02:14:01.347Z,52802.55
2022-08-03T02:15:04.221Z,52847.64
2022-08-03T02:16:07.421Z,52806.56
2022-08-03T02:17:10.180Z,52821.59
2022-08-03T02:18:12.853Z,52812.58
2022-08-03T02:19:15.616Z,52829.61
2022-08-03T02:20:18.387Z,52811.57
2022-08-03T02:21:56.286Z,52858.67
2022-08-03T02:22:25.474Z,52872.70
2022-08-03T02:23:28.139Z,52807.57
2022-08-03T02:24:30.914Z,52833.62
2022-08-03T02:25:33.580Z,52842.64
2022-08-03T02:26:36.352Z,52853.66
2022-08-03T02:27:43.341Z,52826.61
2022-08-03T02:28:43.438Z,52853.66
2022-08-03T02:29:46.208Z,52830.61
2022-08-03T02:30:51.928Z,52849.65
2022-08-03T02:31:53.285Z,52817.59
2022-08-03T02:32:55.972Z,52875.70
2022-08-03T02:33:58.883Z,52803.56
2022-08-03T02:35:01.510Z,52793.54
2022-08-03T02:36:04.180Z,52772.50
2022-08-03T02:37:06.941Z,52770.49
2022-08-03T02:38:09.716Z,52765.48
2022-08-03T02:39:12.486Z,52797.55
2022-08-03T02:40:15.261Z,52799.55
2022-08-03T02:41:17.927Z,52834.62
2022-08-03T02:42:20.706Z,52819.59
2022-08-03T02:43:24.912Z,52779.51
2022-08-03T02:44:27.781Z,52816.58
2022-08-03T02:45:30.653Z,52789.53
2022-08-03T02:46:33.437Z,52805.56
2022-08-03T02:47:53.248Z,52845.64
2022-08-03T02:48:40.509Z,52805.56
2022-08-03T02:49:51.246Z,52802.55
2022-08-03T02:50:47.699Z,52827.61
2022-08-03T02:51:50.466Z,52847.64
2022-08-03T02:52:53.369Z,52809.57
2022-08-03T02:53:56.011Z,52811.57
2022-08-03T02:54:58.780Z,52817.59
2022-08-03T02:56:01.661Z,52831.61
2022-08-03T02:57:04.537Z,52761.47
2022-08-03T02:58:07.198Z,52809.57
2022-08-03T02:59:09.869Z,52789.53
2022-08-03T03:00:12.642Z,52805.56
2022-08-03T03:01:15.561Z,52815.58
2022-08-03T03:02:18.390Z,52774.50
2022-08-03T03:03:21.364Z,52799.55
2022-08-03T03:04:25.706Z,52814.58
2022-08-03T03:05:54.626Z,52791.54
2022-08-03T03:06:32.857Z,52768.49
2022-08-03T03:07:51.256Z,52755.46
2022-08-03T03:08:39.943Z,52803.56
2022-08-03T03:09:43.331Z,52774.50
2022-08-03T03:10:46.208Z,52776.50
2022-08-03T03:11:48.971Z,52793.54
2022-08-03T03:12:51.644Z,52766.48
2022-08-03T03:13:54.412Z,52759.47
2022-08-03T03:14:57.096Z,52789.53
2022-08-03T03:15:59.755Z,52781.52
2022-08-03T03:17:02.429Z,52751.46
2022-08-03T03:18:05.192Z,52807.57
2022-08-03T03:19:07.974Z,52801.55
2022-08-03T03:20:10.746Z,52834.62
2022-08-03T03:21:13.521Z,52785.52
2022-08-03T03:22:16.509Z,52809.57
2022-08-03T03:23:19.370Z,52811.57
2022-08-03T03:24:22.031Z,52777.50
2022-08-03T03:25:24.711Z,52782.52
2022-08-03T03:26:27.376Z,52799.55
2022-08-03T03:27:30.057Z,52800.55
2022-08-03T03:28:32.713Z,52780.51
2022-08-03T03:29:39.289Z,52795.54
2022-08-03T03:30:39.904Z,52788.53
2022-08-03T03:31:42.566Z,52797.55
2022-08-03T03:32:45.446Z,52805.56
2022-08-03T03:33:48.110Z,52824.60
2022-08-03T03:34:51.189Z,52833.62
2022-08-03T03:35:54.063Z,52821.59
2022-08-03T03:36:56.741Z,52815.58
2022-08-03T03:37:59.505Z,52824.60
2022-08-03T03:39:15.452Z,52802.55
2022-08-03T03:40:06.492Z,52823.60
2022-08-03T03:41:09.256Z,52789.53
2022-08-03T03:42:12.136Z,52830.61
2022-08-03T03:43:14.797Z,52798.55
2022-08-03T03:44:17.485Z,52803.56
2022-08-03T03:45:20.149Z,52843.64
2022-08-03T03:46:22.906Z,52800.55
2022-08-03T03:47:32.305Z,52836.62
2022-08-03T03:48:29.990Z,52837.62
2022-08-03T03:49:34.373Z,52812.58
2022-08-03T03:50:37.067Z,52864.68
2022-08-03T03:51:39.746Z,52833.62
2022-08-03T03:52:42.417Z,52840.63
2022-08-03T03:53:45.087Z,52825.60
2022-08-03T03:54:48.060Z,52800.55
2022-08-03T03:55:59.518Z,52822.59
2022-08-03T03:56:55.246Z,52807.57
2022-08-03T03:57:58.012Z,52799.55
2022-08-03T03:59:00.786Z,52812.58
2022-08-03T04:00:03.771Z,52841.63
2022-08-03T04:01:06.689Z,52841.63
2022-08-03T04:02:09.481Z,52833.62
2022-08-03T04:03:12.201Z,52826.61
2022-08-03T04:04:14.964Z,52779.51
2022-08-03T04:05:19.266Z,52800.55
2022-08-03T04:06:22.042Z,52790.53
2022-08-03T04:07:25.017Z,52798.55
2022-08-03T04:08:27.685Z,52763.48
2022-08-03T04:09:30.458Z,52816.58
2022-08-03T04:10:33.127Z,52817.59
2022-08-03T04:11:35.898Z,52825.60
2022-08-03T04:12:38.665Z,52809.57
2022-08-03T04:13:43.086Z,52804.56
2022-08-03T04:14:46.061Z,52815.58
2022-08-03T04:15:48.728Z,52826.61
2022-08-03T04:16:51.397Z,52809.57
2022-08-03T04:17:54.267Z,52842.64
2022-08-03T04:18:57.052Z,52817.59
2022-08-03T04:19:59.721Z,52806.56
2022-08-03T04:21:02.520Z,52817.59
2022-08-03T04:22:05.170Z,52842.64
2022-08-03T04:23:15.411Z,52819.59
2022-08-03T04:24:12.448Z,52813.58
2022-08-03T04:25:15.211Z,52794.54
2022-08-03T04:26:17.886Z,52814.58
2022-08-03T04:27:20.662Z,52833.62
2022-08-03T04:28:30.425Z,52801.55
2022-08-03T04:29:27.836Z,52796.54
2022-08-03T04:30:30.516Z,52812.58
2022-08-03T04:31:33.376Z,52814.58
2022-08-03T04:32:36.163Z,52844.64
2022-08-03T04:33:38.835Z,52809.57
2022-08-03T04:34:41.489Z,52801.55
2022-08-03T04:36:00.998Z,52805.56
2022-08-03T04:36:48.677Z,52810.57
2022-08-03T04:37:51.450Z,52808.57
2022-08-03T04:38:54.218Z,52829.61
2022-08-03T04:39:57.727Z,52828.61
2022-08-03T04:41:00.687Z,52808.57
2022-08-03T04:42:08.407Z,52783.52
2022-08-03T04:43:07.678Z,52780.51
2022-08-03T04:44:10.322Z,52835.62
2022-08-03T04:45:13.631Z,52798.55
2022-08-03T04:46:16.490Z,52813.58
2022-08-03T04:47:19.165Z,52829.61
2022-08-03T04:48:22.041Z,52813.58
2022-08-03T04:49:24.899Z,52829.61
2022-08-03T04:50:27.581Z,52802.55
2022-08-03T04:51:30.458Z,52765.48
2022-08-03T04:52:33.232Z,52811.57
2022-08-03T04:53:36.311Z,52821.59
2022-08-03T04:54:40.204Z,52795.54
2022-08-03T04:55:42.989Z,52819.59
2022-08-03T04:56:45.749Z,52823.60
2022-08-03T04:57:48.522Z,52793.54
2022-08-03T04:58:51.189Z,52830.61
2022-08-03T04:59:58.246Z,52804.56
2022-08-03T05:00:58.267Z,52804.56
2022-08-03T05:02:01.340Z,52802.55
2022-08-03T05:03:04.121Z,52800.55
2022-08-03T05:04:08.341Z,52818.59
2022-08-03T05:05:11.106Z,52810.57
2022-08-03T05:06:13.880Z,52810.57
2022-08-03T05:07:24.132Z,52809.57
2022-08-03T05:08:27.779Z,52822.59
2022-08-03T05:09:50.706Z,52828.61
2022-08-03T05:10:31.106Z,52812.58
2022-08-03T05:11:33.887Z,52848.65
2022-08-03T05:12:36.861Z,52812.58
2022-08-03T05:13:39.935Z,52784.52
2022-08-03T05:14:42.812Z,52785.52
2022-08-03T05:15:45.520Z,52832.62
2022-08-03T05:16:48.351Z,52813.58
2022-08-03T05:17:52.662Z,52834.62
2022-08-03T05:18:55.540Z,52823.60
2022-08-03T05:19:58.525Z,52785.52
2022-08-03T05:21:01.389Z,52782.52
2022-08-03T05:22:04.267Z,52778.51
2022-08-03T05:23:06.940Z,52804.56
2022-08-03T05:24:09.704Z,52823.60
2022-08-03T05:25:16.904Z,52816.58
2022-08-03T05:26:17.098Z,52790.53
2022-08-03T05:27:20.067Z,52798.55
2022-08-03T05:28:23.152Z,52789.53
2022-08-03T05:29:26.025Z,52773.50
2022-08-03T05:30:33.807Z,52792.54
2022-08-03T05:31:33.411Z,52796.54
2022-08-03T05:32:36.389Z,52775.50
2022-08-03T05:33:39.474Z,52787.53
2022-08-03T05:34:42.655Z,52797.55
2022-08-03T05:36:01.669Z,52804.56
2022-08-03T05:36:50.152Z,52792.54
2022-08-03T05:37:54.975Z,52815.58
2022-08-03T05:39:02.247Z,52802.55
2022-08-03T05:40:02.148Z,52782.52
2022-08-03T05:41:20.552Z,52785.52
2022-08-03T05:42:09.403Z,52790.53
2022-08-03T05:43:12.103Z,52779.51
2022-08-03T05:44:14.976Z,52799.55
2022-08-03T05:45:17.782Z,52799.55
2022-08-03T05:46:20.525Z,52831.61
2022-08-03T05:47:23.293Z,52797.55
2022-08-03T05:48:25.968Z,52780.51
2022-08-03T05:49:28.900Z,52787.53
2022-08-03T05:50:31.719Z,52775.50
2022-08-03T05:51:35.015Z,52793.54
2022-08-03T05:52:37.968Z,52796.54
2022-08-03T05:53:40.844Z,52848.65
2022-08-03T05:54:57.011Z,52833.62
2022-08-03T05:55:52.620Z,52817.59
2022-08-03T05:56:52.660Z,52816.58
2022-08-03T05:57:56.821Z,52830.61
2022-08-03T05:59:07.355Z,52833.62
2022-08-03T06:00:04.338Z,52815.58
2022-08-03T06:01:07.592Z,52819.59
2022-08-03T06:02:10.496Z,52849.65
2022-08-03T06:03:13.579Z,52826.61
2022-08-03T06:04:16.560Z,52832.62
2022-08-03T06:05:19.541Z,52809.57
2022-08-03T06:06:22.622Z,52807.57
2022-08-03T06:07:25.803Z,52833.62
2022-08-03T06:08:29.074Z,52845.64
2022-08-03T06:10:33.665Z,52827.61
2022-08-03T06:10:38.334Z,52837.62
2022-08-03T06:11:41.084Z,52854.66
2022-08-03T06:12:43.663Z,52814.58
2022-08-03T06:13:46.314Z,52807.57
2022-08-03T06:14:49.612Z,52818.59
2022-08-03T06:15:52.372Z,52837.62
2022-08-03T06:16:55.145Z,52837.62
2022-08-03T06:18:01.764Z,52863.68
2022-08-03T06:19:02.537Z,52850.65
2022-08-03T06:20:05.624Z,52830.61
2022-08-03T06:21:14.075Z,52845.64
2022-08-03T06:22:13.307Z,52833.62
2022-08-03T06:23:18.556Z,52850.65
2022-08-03T06:24:21.821Z,52825.60
2022-08-03T06:25:26.230Z,52828.61
2022-08-03T06:26:29.525Z,52863.68
2022-08-03T06:27:37.377Z,52831.61
2022-08-03T06:28:52.715Z,52840.63
2022-08-03T06:29:41.318Z,52835.62
2022-08-03T06:30:44.499Z,52843.64
2022-08-03T06:31:47.585Z,52853.66
2022-08-03T06:32:51.932Z,52838.62
2022-08-03T06:34:34.351Z,52841.63
2022-08-03T06:34:59.190Z,52874.70
2022-08-03T06:36:02.147Z,52882.71
2022-08-03T06:37:05.122Z,52884.72
2022-08-03T06:38:08.101Z,52879.71
2022-08-03T06:39:11.507Z,52881.71
2022-08-03T06:40:14.470Z,52877.71
2022-08-03T06:41:17.450Z,52885.72
2022-08-03T06:42:20.623Z,52865.68
2022-08-03T06:43:24.621Z,52896.74
2022-08-03T06:44:27.807Z,52875.70
2022-08-03T06:45:31.689Z,52893.74
2022-08-03T06:46:35.290Z,52895.74
2022-08-03T06:47:38.500Z,52869.69
2022-08-03T06:48:43.328Z,52892.73
2022-08-03T06:50:05.035Z,52894.74
2022-08-03T06:50:50.698Z,52885.72
2022-08-03T06:52:03.302Z,52901.75
2022-08-03T06:52:57.873Z,52901.75
2022-08-03T06:54:00.754Z,52934.82
2022-08-03T06:55:03.926Z,52952.86
2022-08-03T06:56:06.852Z,52915.78
2022-08-03T06:57:09.671Z,52922.80
2022-08-03T06:58:12.358Z,52919.79
2022-08-03T07:00:10.700Z,52947.85
2022-08-03T07:00:19.539Z,52947.85
2022-08-03T07:01:22.258Z,52930.81
2022-08-03T07:02:28.290Z,52957.87
2022-08-03T07:03:29.790Z,52964.88
2022-08-03T07:04:32.459Z,52981.92
2022-08-03T07:05:35.361Z,53001.96
2022-08-03T07:06:38.220Z,52969.89
2022-08-03T07:07:41.091Z,53081.12
2022-08-03T07:08:44.163Z,53050.05
2022-08-03T07:09:57.862Z,53047.05
2022-08-03T07:10:51.348Z,53107.17
2022-08-03T07:11:54.324Z,53088.13
2022-08-03T07:12:57.506Z,53106.17
2022-08-03T07:14:00.278Z,53114.19
2022-08-03T07:15:03.678Z,53094.14
2022-08-03T07:16:06.450Z,53131.22
2022-08-03T07:17:11.946Z,53138.23
2022-08-03T07:18:13.718Z,53160.28
2022-08-03T07:19:16.703Z,53173.31
2022-08-03T07:20:19.777Z,53186.34
2022-08-03T07:21:22.764Z,53228.42
2022-08-03T07:22:25.624Z,53286.55
2022-08-03T07:23:28.600Z,53419.83
2022-08-03T07:24:31.588Z,53530.07
2022-08-03T07:25:34.669Z,53581.18
2022-08-03T07:26:39.177Z,53670.37
2022-08-03T07:27:42.248Z,53781.62
2022-08-03T07:28:45.334Z,53849.77
2022-08-03T07:29:48.008Z,53912.92
2022-08-03T07:30:50.994Z,53980.07
2022-08-03T07:31:53.863Z,54027.18
2022-08-03T07:32:56.522Z,54085.31
2022-08-03T07:33:59.607Z,54126.41
2022-08-03T07:35:02.376Z,54164.50
2022-08-03T07:36:06.789Z,54153.47
2022-08-03T07:37:09.767Z,54187.55
2022-08-03T07:38:12.949Z,54220.62
2022-08-03T07:39:17.612Z,54280.77
2022-08-03T07:40:21.053Z,54284.78
2022-08-03T07:41:23.729Z,54303.82
2022-08-03T07:42:26.598Z,54355.95
2022-08-03T07:43:29.472Z,54377.00
2022-08-03T07:44:32.442Z,54416.09
2022-08-03T07:45:35.319Z,54457.19
2022-08-03T07:46:38.304Z,54512.32
2022-08-03T07:47:41.183Z,54533.37
2022-08-03T07:48:45.582Z,54615.57
2022-08-03T07:49:48.248Z,54675.72
2022-08-03T07:50:51.228Z,54726.84
2022-08-03T07:51:53.908Z,54790.00
2022-08-03T07:52:56.572Z,54799.02
2022-08-03T07:53:59.342Z,54844.14
2022-08-03T07:55:02.210Z,54806.04
2022-08-03T07:56:05.729Z,54832.11
2022-08-03T07:57:09.598Z,54905.29
2022-08-03T07:58:12.737Z,54869.20
2022-08-03T07:59:15.553Z,54877.22
2022-08-03T08:00:18.530Z,54838.12
2022-08-03T08:01:22.036Z,54838.12
2022-08-03T08:02:24.689Z,54883.23
2022-08-03T08:03:27.671Z,54875.21
2022-08-03T08:04:32.177Z,54887.24
2022-08-03T08:05:35.362Z,54951.41
2022-08-03T08:06:38.134Z,54938.37
2022-08-03T08:07:42.144Z,54981.48
2022-08-03T08:08:44.910Z,55031.61
2022-08-03T08:09:47.575Z,54968.45
2022-08-03T08:10:58.324Z,54991.51
2022-08-03T08:11:54.557Z,54946.39
2022-08-03T08:12:57.325Z,54951.41
2022-08-03T08:14:00.105Z,54935.36
2022-08-03T08:15:02.981Z,54878.22
2022-08-03T08:16:05.748Z,54862.18
2022-08-03T08:17:08.423Z,54856.16
2022-08-03T08:18:11.187Z,54846.14
2022-08-03T08:19:14.269Z,54830.10
2022-08-03T08:20:18.859Z,54862.18
2022-08-03T08:21:22.278Z,54918.32
2022-08-03T08:22:30.717Z,54946.39
2022-08-03T08:23:41.921Z,54900.28
2022-08-03T08:24:34.279Z,54892.26
2022-08-03T08:25:37.454Z,54888.25
2022-08-03T08:26:40.433Z,54913.31
2022-08-03T08:28:30.619Z,54883.23
2022-08-03T08:28:47.510Z,54832.11
2022-08-03T08:29:55.286Z,54830.10
2022-08-03T08:30:54.924Z,54830.10
2022-08-03T08:31:57.772Z,54876.21
2022-08-03T08:33:00.650Z,54881.23
2022-08-03T08:34:04.817Z,54887.24
2022-08-03T08:35:07.628Z,54935.36
2022-08-03T08:36:15.044Z,54944.39
2022-08-03T08:37:14.608Z,54970.45
2022-08-03T08:38:17.304Z,54949.40
2022-08-03T08:39:20.046Z,54954.41
2022-08-03T08:40:22.619Z,54960.43
2022-08-03T08:41:25.489Z,55012.56
2022-08-03T08:42:29.698Z,55092.77
2022-08-03T08:43:32.259Z,55124.85
2022-08-03T08:44:34.831Z,55158.93
2022-08-03T08:45:37.499Z,55180.99
2022-08-03T08:46:40.276Z,55190.02
2022-08-03T08:47:50.886Z,55199.04
2022-08-03T08:48:47.365Z,55225.11
2022-08-03T08:50:08.821Z,55260.20
2022-08-03T08:50:54.027Z,55286.27
2022-08-03T08:52:01.260Z,55270.22
2022-08-03T08:53:01.003Z,55295.29
2022-08-03T08:54:03.771Z,55330.38
2022-08-03T08:55:06.457Z,55360.46
2022-08-03T08:56:09.217Z,55334.39
2022-08-03T08:57:33.101Z,55440.67
2022-08-03T08:58:20.926Z,55499.83
2022-08-03T08:59:20.306Z,55481.78
2022-08-03T09:00:22.965Z,55485.79
2022-08-03T09:01:25.727Z,55566.01
2022-08-03T09:02:28.419Z,55572.02
2022-08-03T09:03:31.294Z,55562.00
2022-08-03T09:04:34.059Z,55641.21
2022-08-03T09:05:55.374Z,55670.29
2022-08-03T09:06:40.928Z,55658.25
2022-08-03T09:07:43.600Z,55677.30
2022-08-03T09:08:46.168Z,55662.27
2022-08-03T09:10:10.745Z,55658.25
2022-08-03T09:10:53.051Z,55639.20
2022-08-03T09:12:08.998Z,55636.20
2022-08-03T09:13:00.017Z,55674.30
2022-08-03T09:14:02.996Z,55658.25
2022-08-03T09:15:16.887Z,55692.35
2022-08-03T09:16:10.087Z,55724.43
2022-08-03T09:17:17.334Z,55737.47
2022-08-03T09:18:16.957Z,55746.50
2022-08-03T09:19:19.729Z,55742.48
2022-08-03T09:20:22.393Z,55786.60
2022-08-03T09:21:33.513Z,55790.62
2022-08-03T09:22:29.382Z,55836.74
2022-08-03T09:23:59.788Z,55837.75
2022-08-03T09:24:43.468Z,55849.78
2022-08-03T09:25:40.350Z,55849.78
2022-08-03T09:26:43.028Z,55882.87
2022-08-03T09:27:45.700Z,55925.99
2022-08-03T09:28:57.903Z,55934.01
2022-08-03T09:29:52.567Z,55976.13
2022-08-03T09:30:55.244Z,55980.14
2022-08-03T09:31:59.387Z,56027.27
2022-08-03T09:33:02.118Z,56051.34
2022-08-03T09:34:05.104Z,56056.35
2022-08-03T09:35:09.493Z,56061.37
2022-08-03T09:36:11.967Z,56045.32
2022-08-03T09:37:14.987Z,56061.37
2022-08-03T09:38:17.819Z,56115.52
2022-08-03T09:39:41.275Z,56109.50
2022-08-03T09:40:24.807Z,56127.55
2022-08-03T09:41:27.478Z,56127.55
2022-08-03T09:42:30.047Z,56115.52
2022-08-03T09:43:32.807Z,56097.47
2022-08-03T09:44:35.575Z,55995.18
2022-08-03T09:45:38.344Z,55947.05
2022-08-03T09:46:41.020Z,55813.68
2022-08-03T09:47:45.334Z,55717.41
2022-08-03T09:48:47.905Z,55567.01
2022-08-03T09:49:50.566Z,55390.54
2022-08-03T09:50:58.797Z,55115.82
2022-08-03T09:52:33.682Z,54884.23
2022-08-03T09:53:01.846Z,54737.87
2022-08-03T09:54:06.777Z,54642.64
2022-08-03T09:56:31.118Z,54581.49
2022-08-03T09:56:34.146Z,54501.29
2022-08-03T09:57:17.503Z,54383.01
2022-08-03T09:58:20.119Z,54358.95
2022-08-03T09:59:22.785Z,54347.93
2022-08-03T10:00:25.459Z,54274.75
2022-08-03T10:01:28.311Z,54257.71
2022-08-03T10:02:31.008Z,54246.69
2022-08-03T10:03:33.678Z,54224.64
2022-08-03T10:04:36.348Z,54214.61
2022-08-03T10:05:38.906Z,54168.50
2022-08-03T10:06:41.699Z,54158.48
2022-08-03T10:07:46.053Z,54181.54
2022-08-03T10:08:48.362Z,54149.46
2022-08-03T10:09:51.125Z,54146.45
2022-08-03T10:10:53.820Z,54161.49
2022-08-03T10:11:56.367Z,54144.45
2022-08-03T10:12:59.043Z,54173.52
2022-08-03T10:14:01.759Z,54126.41
2022-08-03T10:15:04.364Z,54134.43
2022-08-03T10:16:22.240Z,54078.29
2022-08-03T10:17:11.350Z,54102.35
2022-08-03T10:18:14.021Z,54088.32
2022-08-03T10:19:16.789Z,54084.31
2022-08-03T10:20:19.458Z,54092.33
2022-08-03T10:21:22.130Z,54104.36
2022-08-03T10:22:24.909Z,54095.33
2022-08-03T10:23:28.704Z,54077.29
2022-08-03T10:24:32.205Z,54060.25
2022-08-03T10:25:34.861Z,54124.40
2022-08-03T10:26:37.636Z,54076.29
2022-08-03T10:27:41.841Z,54073.29
2022-08-03T10:28:45.589Z,54086.31
2022-08-03T10:29:48.311Z,54104.36
2022-08-03T10:30:50.981Z,54074.29
2022-08-03T10:31:57.311Z,54087.32
2022-08-03T10:32:57.649Z,54066.27
2022-08-03T10:34:00.418Z,54084.31
2022-08-03T10:35:04.071Z,54122.39
2022-08-03T10:36:07.403Z,54068.27
2022-08-03T10:37:10.367Z,54080.30
2022-08-03T10:38:13.147Z,54139.44
2022-08-03T10:39:16.096Z,54064.26
2022-08-03T10:40:39.592Z,54070.28
2022-08-03T10:41:23.507Z,54070.28
2022-08-03T10:42:26.312Z,54067.27
2022-08-03T10:43:29.162Z,54072.28
2022-08-03T10:44:31.824Z,54075.29
2022-08-03T10:45:34.932Z,54089.32
2022-08-03T10:46:41.486Z,54067.27
2022-08-03T10:47:41.877Z,54068.27
2022-08-03T10:48:44.650Z,54078.29
2022-08-03T10:49:47.163Z,54131.42
2022-08-03T10:50:49.888Z,54134.43
2022-08-03T10:51:54.429Z,54115.38
2022-08-03T10:52:56.768Z,54085.31
2022-08-03T10:53:59.539Z,54094.33
2022-08-03T10:55:07.764Z,54119.39
2022-08-03T10:56:07.945Z,54137.43
2022-08-03T10:57:14.394Z,54093.33
2022-08-03T10:58:15.745Z,54164.50
2022-08-03T10:59:22.990Z,54161.49
2022-08-03T11:00:24.465Z,54152.46
2022-08-03T11:01:27.039Z,54122.39
2022-08-03T11:02:31.448Z,54082.30
2022-08-03T11:03:34.121Z,54094.33
2022-08-03T11:04:36.892Z,54090.32
2022-08-03T11:05:39.768Z,54095.33
2022-08-03T11:06:43.652Z,54126.41
2022-08-03T11:07:46.228Z,54094.33
2022-08-03T11:08:50.448Z,54112.37
2022-08-03T11:09:53.207Z,54068.27
2022-08-03T11:10:55.881Z,54064.26
2022-08-03T11:11:58.547Z,54058.25
2022-08-03T11:13:01.421Z,54064.26
2022-08-03T11:14:03.987Z,54094.33
2022-08-03T11:15:07.171Z,54031.19
2022-08-03T11:16:16.117Z,54082.30
2022-08-03T11:17:14.824Z,54118.39
2022-08-03T11:18:17.539Z,54089.32
2022-08-03T11:19:20.304Z,54075.29
2022-08-03T11:20:23.703Z,54076.29
2022-08-03T11:21:30.362Z,54096.34
2022-08-03T11:22:30.783Z,54092.33
2022-08-03T11:24:04.464Z,54119.39
2022-08-03T11:24:37.757Z,54144.45
2022-08-03T11:25:54.941Z,54158.48
2022-08-03T11:26:44.846Z,54156.48
2022-08-03T11:27:47.506Z,54155.47
2022-08-03T11:28:50.381Z,54172.51
2022-08-03T11:29:53.145Z,54202.58
2022-08-03T11:30:55.817Z,54152.46
2022-08-03T11:31:58.495Z,54164.50
2022-08-03T11:33:01.153Z,54161.49
2022-08-03T11:34:03.928Z,54201.58
2022-08-03T11:35:06.601Z,54191.56
2022-08-03T11:36:09.276Z,54157.48
2022-08-03T11:37:12.097Z,54178.53
2022-08-03T11:38:14.727Z,54155.47
2022-08-03T11:39:17.387Z,54149.46
2022-08-03T11:40:20.059Z,54164.50
2022-08-03T11:41:22.716Z,54154.47
2022-08-03T11:42:25.495Z,54156.48
2022-08-03T11:43:31.056Z,54178.53
2022-08-03T11:44:32.230Z,54190.55
2022-08-03T11:45:34.739Z,54135.43
2022-08-03T11:46:37.402Z,54172.51
2022-08-03T11:47:50.234Z,54181.54
2022-08-03T11:48:44.177Z,54204.59
2022-08-03T11:49:46.946Z,54201.58
2022-08-03T11:50:49.711Z,54198.57
2022-08-03T11:51:52.490Z,54196.57
2022-08-03T11:52:55.267Z,54210.60
2022-08-03T11:53:58.051Z,54202.58
2022-08-03T11:55:00.809Z,54246.69
2022-08-03T11:56:03.581Z,54248.69
2022-08-03T11:57:07.687Z,54220.62
2022-08-03T11:59:19.416Z,54214.61
2022-08-03T11:59:20.338Z,54244.68
2022-08-03T12:00:18.864Z,54256.71
2022-08-03T12:01:23.207Z,54270.74
2022-08-03T12:02:25.740Z,54297.81
2022-08-03T12:03:28.476Z,54269.74
2022-08-03T12:04:31.193Z,54254.71
2022-08-03T12:05:33.770Z,54230.65
2022-08-03T12:06:36.526Z,54290.79
2022-08-03T12:08:04.071Z,54284.78
2022-08-03T12:08:43.606Z,54306.83
2022-08-03T12:09:46.282Z,54299.81
2022-08-03T12:10:48.842Z,54276.76
2022-08-03T12:11:59.401Z,54316.85
2022-08-03T12:12:55.611Z,54302.82
2022-08-03T12:14:48.420Z,54340.91
2022-08-03T12:15:02.591Z,54372.98
2022-08-03T12:16:05.263Z,54314.85
2022-08-03T12:17:07.824Z,54310.84
2022-08-03T12:18:11.028Z,54300.81
2022-08-03T12:19:13.688Z,54336.90
2022-08-03T12:20:16.252Z,54318.86
2022-08-03T12:21:18.937Z,54330.89
2022-08-03T12:22:21.811Z,54351.93